No particular awareness of the weather is required.    There are no Weather-warnings


Meteo18 Weather Cam more information Meteo18 Weather Cam


Thunder radar more information blitzortung!


Rain radar more information rain snow radar


Visit our other weather sites:

Template documentation
and downloads

And another site



Weather Underground History page Text

Daily Summary for November 18, 2017 Units:  Metric    English   Both
« Previous Day
Next Day »
Daily Weekly Monthly Yearly Custom
  High: Low: Average:
Temperature: 8.8 °C 4.3 °C 7.2 °C
Dew Point: 6.2 °C 3.1 °C 4.5 °C
Humidity: 94 % 71 % 84 %
Wind Speed: 11.3 km/h 0.0 km/h 2 km/h
Wind Gust: 17.7 km/h - -
Wind:- - South
Pressure: 1027.3 hPa 1024.9 hPa -
Precipitation: 0.0 mm    
Historical Graphs
 
 
Tabular Data for November 18, 2017
Time Temperature Dew Point Pressure Wind Wind Speed Wind Gust Humidity Rainfall Rate (Hourly)
00:02 7.1 °C 6.2 °C 1026.6 hPa NE 8.0 km/h 9.7 km/h 94 % 0.0 mm
00:07 7.1 °C 6.0 °C 1026.6 hPa NW 6.4 km/h 11.3 km/h 93 % 0.0 mm
00:12 7.1 °C 6.0 °C 1026.6 hPa North 6.4 km/h 14.5 km/h 93 % 0.0 mm
00:17 7.1 °C 6.2 °C 1026.6 hPa NE 4.8 km/h 14.5 km/h 94 % 0.0 mm
00:22 7.0 °C 5.9 °C 1026.6 hPa NNE 8.0 km/h 16.1 km/h 93 % 0.0 mm
00:27 7.0 °C 5.9 °C 1026.6 hPa NNE 4.8 km/h 17.7 km/h 93 % 0.0 mm
00:32 7.0 °C 5.9 °C 1026.6 hPa NW 1.6 km/h 17.7 km/h 93 % 0.0 mm
00:37 7.0 °C 6.1 °C 1026.6 hPa NNW 3.2 km/h 17.7 km/h 94 % 0.0 mm
00:42 7.0 °C 5.9 °C 1026.6 hPa NNE 11.3 km/h 16.1 km/h 93 % 0.0 mm
00:52 6.9 °C 5.8 °C 1026.3 hPa ENE 6.4 km/h 14.5 km/h 93 % 0.0 mm
01:02 6.9 °C 6.0 °C 1026.3 hPa NNE 4.8 km/h 16.1 km/h 94 % 0.0 mm
01:07 6.9 °C 6.0 °C 1026.3 hPa Calm   12.9 km/h 94 % 0.0 mm
01:17 6.9 °C 6.0 °C 1026.3 hPa NE 3.2 km/h 12.9 km/h 94 % 0.0 mm
01:22 6.9 °C 6.0 °C 1026.3 hPa North 3.2 km/h 12.9 km/h 94 % 0.0 mm
01:27 6.8 °C 5.9 °C 1026.3 hPa ENE 4.8 km/h 9.7 km/h 94 % 0.0 mm
01:32 6.8 °C 5.7 °C 1026.3 hPa NNE 8.0 km/h 14.5 km/h 93 % 0.0 mm
01:37 6.8 °C 5.7 °C 1026.3 hPa NNE 8.0 km/h 14.5 km/h 93 % 0.0 mm
01:42 6.8 °C 5.7 °C 1026.3 hPa ENE 6.4 km/h 17.7 km/h 93 % 0.0 mm
01:47 6.9 °C 5.8 °C 1026.3 hPa ENE 4.8 km/h 17.7 km/h 93 % 0.0 mm
01:52 6.8 °C 5.7 °C 1026.3 hPa North 1.6 km/h 16.1 km/h 93 % 0.0 mm
01:57 6.9 °C 5.8 °C 1026.3 hPa NNE 6.4 km/h 11.3 km/h 93 % 0.0 mm
02:02 6.9 °C 5.8 °C 1026.3 hPa NE 4.8 km/h 9.7 km/h 93 % 0.0 mm
02:12 6.9 °C 5.8 °C 1026.3 hPa NNE 9.7 km/h 14.5 km/h 93 % 0.0 mm
02:17 6.9 °C 5.8 °C 1026.0 hPa NE 4.8 km/h 14.5 km/h 93 % 0.0 mm
02:22 6.9 °C 5.8 °C 1026.3 hPa NNE 8.0 km/h 14.5 km/h 93 % 0.0 mm
02:32 6.9 °C 5.8 °C 1026.3 hPa NE 6.4 km/h 11.3 km/h 93 % 0.0 mm
02:37 6.9 °C 5.7 °C 1026.3 hPa NE 8.0 km/h 11.3 km/h 92 % 0.0 mm
02:47 7.0 °C 5.8 °C 1026.3 hPa North 1.6 km/h 16.1 km/h 92 % 0.0 mm
02:52 7.1 °C 5.9 °C 1026.3 hPa Calm   16.1 km/h 92 % 0.0 mm
02:57 7.1 °C 5.9 °C 1026.3 hPa NNE 1.6 km/h 16.1 km/h 92 % 0.0 mm
03:02 7.1 °C 5.9 °C 1026.3 hPa NE 6.4 km/h 11.3 km/h 92 % 0.0 mm
03:07 7.1 °C 5.9 °C 1026.3 hPa NE 4.8 km/h 11.3 km/h 92 % 0.0 mm
03:12 7.1 °C 5.7 °C 1026.3 hPa NNE 9.7 km/h 11.3 km/h 91 % 0.0 mm
03:17 7.1 °C 5.7 °C 1026.3 hPa ENE 1.6 km/h 11.3 km/h 91 % 0.0 mm
03:22 7.1 °C 5.7 °C 1026.3 hPa NE 1.6 km/h 11.3 km/h 91 % 0.0 mm
03:27 7.1 °C 5.9 °C 1026.3 hPa NE 1.6 km/h 9.7 km/h 92 % 0.0 mm
03:32 6.7 °C 5.5 °C 1026.3 hPa NNE 3.2 km/h 6.4 km/h 92 % 0.0 mm
03:37 6.8 °C 5.6 °C 1026.3 hPa NE 1.6 km/h 6.4 km/h 92 % 0.0 mm
08:37 5.1 °C 3.9 °C 1026.3 hPa Calm     92 % 0.0 mm
08:42 5.1 °C 3.9 °C 1026.6 hPa Calm     92 % 0.0 mm
08:47 5.0 °C 3.8 °C 1026.6 hPa Calm   1.6 km/h 92 % 0.0 mm
08:52 5.1 °C 4.1 °C 1026.6 hPa Calm   1.6 km/h 93 % 0.0 mm
08:57 5.2 °C 4.2 °C 1026.6 hPa Calm   1.6 km/h 93 % 0.0 mm
09:02 5.2 °C 4.0 °C 1026.6 hPa Calm   1.6 km/h 92 % 0.0 mm
09:07 5.3 °C 4.1 °C 1026.6 hPa Calm   1.6 km/h 92 % 0.0 mm
09:12 5.3 °C 4.1 °C 1026.6 hPa Calm   1.6 km/h 92 % 0.0 mm
09:17 5.4 °C 4.2 °C 1026.6 hPa Calm     92 % 0.0 mm
09:22 5.4 °C 4.2 °C 1026.6 hPa Calm   1.6 km/h 92 % 0.0 mm
09:27 5.7 °C 4.5 °C 1026.6 hPa Calm   1.6 km/h 92 % 0.0 mm
09:32 5.8 °C 4.4 °C 1026.6 hPa Calm   1.6 km/h 91 % 0.0 mm
09:42 6.3 °C 4.9 °C 1026.6 hPa Calm     91 % 0.0 mm
09:47 6.7 °C 5.3 °C 1026.6 hPa Calm   1.6 km/h 91 % 0.0 mm
09:52 7.2 °C 5.8 °C 1026.6 hPa Calm   1.6 km/h 91 % 0.0 mm
10:02 7.9 °C 5.4 °C 1027.0 hPa Calm   1.6 km/h 84 % 0.0 mm
10:12 7.5 °C 5.0 °C 1027.3 hPa Calm   1.6 km/h 84 % 0.0 mm
10:17 7.5 °C 5.0 °C 1027.0 hPa NNE 1.6 km/h 3.2 km/h 84 % 0.0 mm
10:22 7.4 °C 4.9 °C 1027.0 hPa NE 3.2 km/h 3.2 km/h 84 % 0.0 mm
10:32 7.4 °C 4.9 °C 1027.0 hPa NNE 1.6 km/h 3.2 km/h 84 % 0.0 mm
10:42 7.8 °C 5.1 °C 1027.0 hPa Calm   3.2 km/h 83 % 0.0 mm
10:47 8.3 °C 5.6 °C 1027.0 hPa Calm   3.2 km/h 83 % 0.0 mm
10:52 8.4 °C 4.8 °C 1027.3 hPa Calm   3.2 km/h 78 % 0.0 mm
11:02 8.5 °C 4.7 °C 1027.3 hPa Calm   1.6 km/h 77 % 0.0 mm
11:12 8.4 °C 4.6 °C 1027.3 hPa Calm   1.6 km/h 77 % 0.0 mm
11:17 8.6 °C 4.8 °C 1027.3 hPa Calm   8.0 km/h 77 % 0.0 mm
11:22 8.6 °C 4.6 °C 1027.3 hPa Calm   8.0 km/h 76 % 0.0 mm
11:27 8.8 °C 5.0 °C 1027.3 hPa North 4.8 km/h 8.0 km/h 77 % 0.0 mm
11:32 8.8 °C 4.6 °C 1027.3 hPa NE 1.6 km/h 3.2 km/h 75 % 0.0 mm
11:37 8.7 °C 4.5 °C 1027.0 hPa Calm   6.4 km/h 75 % 0.0 mm
11:42 8.6 °C 4.6 °C 1027.0 hPa ENE 3.2 km/h 6.4 km/h 76 % 0.0 mm
11:47 8.5 °C 4.5 °C 1027.0 hPa NNE 1.6 km/h 8.0 km/h 76 % 0.0 mm
11:52 8.6 °C 4.6 °C 1027.0 hPa NNW 4.8 km/h 9.7 km/h 76 % 0.0 mm
11:57 8.6 °C 4.6 °C 1027.0 hPa NE 4.8 km/h 9.7 km/h 76 % 0.0 mm
12:02 8.3 °C 4.3 °C 1027.0 hPa Calm   9.7 km/h 76 % 0.0 mm
12:12 8.4 °C 4.0 °C 1027.0 hPa NNW 4.8 km/h 9.7 km/h 74 % 0.0 mm
12:17 8.4 °C 4.0 °C 1027.0 hPa NNW 3.2 km/h 8.0 km/h 74 % 0.0 mm
12:27 8.4 °C 4.2 °C 1027.0 hPa North 3.2 km/h 8.0 km/h 75 % 0.0 mm
12:32 8.4 °C 4.0 °C 1027.0 hPa NNW 4.8 km/h 6.4 km/h 74 % 0.0 mm
12:37 8.4 °C 3.8 °C 1027.0 hPa North 4.8 km/h 6.4 km/h 73 % 0.0 mm
12:42 8.4 °C 3.8 °C 1026.6 hPa North 1.6 km/h 12.9 km/h 73 % 0.0 mm
12:47 8.4 °C 3.8 °C 1026.6 hPa NW 6.4 km/h 12.9 km/h 73 % 0.0 mm
12:52 8.5 °C 3.7 °C 1026.6 hPa WNW 3.2 km/h 9.7 km/h 72 % 0.0 mm
12:57 8.6 °C 3.8 °C 1026.6 hPa NW 3.2 km/h 9.7 km/h 72 % 0.0 mm
13:02 8.7 °C 3.9 °C 1026.6 hPa Calm   9.7 km/h 72 % 0.0 mm
13:12 8.4 °C 5.0 °C 1026.6 hPa NE 8.0 km/h 11.3 km/h 79 % 0.0 mm
13:17 8.3 °C 4.9 °C 1026.6 hPa NE 3.2 km/h 11.3 km/h 79 % 0.0 mm
13:22 8.2 °C 4.6 °C 1026.3 hPa NE 6.4 km/h 11.3 km/h 78 % 0.0 mm
13:32 8.2 °C 4.8 °C 1026.6 hPa Calm   9.7 km/h 79 % 0.0 mm
13:37 8.3 °C 4.7 °C 1026.6 hPa ENE 1.6 km/h 8.0 km/h 78 % 0.0 mm
13:42 8.3 °C 4.9 °C 1026.6 hPa Calm   8.0 km/h 79 % 0.0 mm
13:52 8.3 °C 5.2 °C 1026.6 hPa Calm   4.8 km/h 81 % 0.0 mm
14:02 8.3 °C 5.1 °C 1026.3 hPa Calm   8.0 km/h 80 % 0.0 mm
14:12 8.4 °C 4.6 °C 1026.3 hPa Calm   8.0 km/h 77 % 0.0 mm
14:22 8.6 °C 5.0 °C 1026.3 hPa Calm   9.7 km/h 78 % 0.0 mm
14:32 8.5 °C 4.5 °C 1026.3 hPa Calm   9.7 km/h 76 % 0.0 mm
14:37 8.4 °C 4.2 °C 1026.3 hPa NNW 1.6 km/h 8.0 km/h 75 % 0.0 mm
14:42 8.4 °C 4.4 °C 1026.3 hPa Calm   8.0 km/h 76 % 0.0 mm
14:52 8.4 °C 3.8 °C 1026.3 hPa NNE 1.6 km/h 8.0 km/h 73 % 0.0 mm
14:57 8.4 °C 3.6 °C 1026.3 hPa NNW 3.2 km/h 8.0 km/h 72 % 0.0 mm
15:02 8.4 °C 3.6 °C 1026.3 hPa NNW 6.4 km/h 8.0 km/h 72 % 0.0 mm
15:07 8.4 °C 3.4 °C 1026.3 hPa NW 8.0 km/h 11.3 km/h 71 % 0.0 mm
15:12 8.4 °C 3.6 °C 1026.3 hPa NNW 8.0 km/h 11.3 km/h 72 % 0.0 mm
15:17 8.3 °C 3.5 °C 1026.3 hPa NNW 8.0 km/h 11.3 km/h 72 % 0.0 mm
15:22 8.2 °C 3.5 °C 1026.3 hPa NNW 3.2 km/h 9.7 km/h 72 % 0.0 mm
15:32 8.2 °C 3.6 °C 1026.0 hPa Calm   11.3 km/h 73 % 0.0 mm
15:37 8.2 °C 3.6 °C 1026.0 hPa NNE 3.2 km/h 11.3 km/h 73 % 0.0 mm
15:42 8.2 °C 3.8 °C 1026.0 hPa NNW 3.2 km/h 11.3 km/h 74 % 0.0 mm
15:47 8.2 °C 3.5 °C 1026.0 hPa WNW 1.6 km/h 9.7 km/h 72 % 0.0 mm
15:52 8.3 °C 3.5 °C 1026.0 hPa Calm   8.0 km/h 72 % 0.0 mm
15:57 8.3 °C 3.5 °C 1026.0 hPa Calm   8.0 km/h 72 % 0.0 mm
16:02 8.3 °C 3.5 °C 1026.0 hPa Calm   4.8 km/h 72 % 0.0 mm
16:07 8.3 °C 3.5 °C 1026.0 hPa Calm   1.6 km/h 72 % 0.0 mm
16:12 8.3 °C 3.5 °C 1026.0 hPa West 1.6 km/h 1.6 km/h 72 % 0.0 mm
16:17 8.3 °C 3.7 °C 1026.0 hPa Calm   1.6 km/h 73 % 0.0 mm
16:22 8.3 °C 3.7 °C 1026.0 hPa WNW 1.6 km/h 1.6 km/h 73 % 0.0 mm
16:27 8.3 °C 3.5 °C 1026.0 hPa WSW 1.6 km/h 3.2 km/h 72 % 0.0 mm
16:32 8.2 °C 3.6 °C 1026.0 hPa Calm   3.2 km/h 73 % 0.0 mm
16:37 8.2 °C 3.6 °C 1026.0 hPa West 1.6 km/h 3.2 km/h 73 % 0.0 mm
16:42 8.2 °C 3.6 °C 1026.0 hPa WNW 3.2 km/h 3.2 km/h 73 % 0.0 mm
16:47 8.2 °C 3.6 °C 1026.0 hPa Calm   3.2 km/h 73 % 0.0 mm
16:52 8.2 °C 3.6 °C 1025.6 hPa Calm   3.2 km/h 73 % 0.0 mm
16:57 8.2 °C 3.8 °C 1025.6 hPa Calm   3.2 km/h 74 % 0.0 mm
17:02 8.1 °C 3.7 °C 1026.0 hPa Calm   3.2 km/h 74 % 0.0 mm
17:07 8.1 °C 3.9 °C 1025.6 hPa Calm   1.6 km/h 75 % 0.0 mm
17:12 8.1 °C 3.9 °C 1025.6 hPa Calm   1.6 km/h 75 % 0.0 mm
17:17 7.9 °C 3.7 °C 1025.6 hPa Calm   1.6 km/h 75 % 0.0 mm
17:22 7.9 °C 3.9 °C 1025.6 hPa Calm   1.6 km/h 76 % 0.0 mm
17:27 7.9 °C 3.9 °C 1025.6 hPa Calm     76 % 0.0 mm
17:32 7.8 °C 3.8 °C 1025.6 hPa Calm     76 % 0.0 mm
17:37 7.8 °C 4.0 °C 1025.6 hPa Calm     77 % 0.0 mm
17:42 7.7 °C 4.1 °C 1025.6 hPa Calm     78 % 0.0 mm
17:47 7.7 °C 4.1 °C 1026.0 hPa WNW 1.6 km/h 1.6 km/h 78 % 0.0 mm
17:52 7.7 °C 4.1 °C 1025.6 hPa WNW 1.6 km/h 1.6 km/h 78 % 0.0 mm
17:57 7.7 °C 4.3 °C 1026.0 hPa WNW 1.6 km/h 3.2 km/h 79 % 0.0 mm
18:02 7.6 °C 4.2 °C 1026.0 hPa WNW 1.6 km/h 3.2 km/h 79 % 0.0 mm
18:12 7.6 °C 4.0 °C 1025.6 hPa Calm   4.8 km/h 78 % 0.0 mm
18:22 7.6 °C 4.2 °C 1025.3 hPa Calm   4.8 km/h 79 % 0.0 mm
18:27 7.6 °C 4.2 °C 1025.6 hPa NW 3.2 km/h 3.2 km/h 79 % 0.0 mm
18:32 7.5 °C 4.3 °C 1025.6 hPa Calm   1.6 km/h 80 % 0.0 mm
18:42 7.4 °C 4.5 °C 1025.6 hPa NNW 1.6 km/h 4.8 km/h 82 % 0.0 mm
18:47 7.3 °C 4.4 °C 1025.6 hPa Calm   4.8 km/h 82 % 0.0 mm
18:52 7.3 °C 4.4 °C 1025.6 hPa Calm   4.8 km/h 82 % 0.0 mm
19:02 7.2 °C 4.5 °C 1025.6 hPa NW 1.6 km/h 1.6 km/h 83 % 0.0 mm
19:07 7.2 °C 4.7 °C 1025.6 hPa Calm   1.6 km/h 84 % 0.0 mm
19:12 7.2 °C 4.7 °C 1025.6 hPa Calm   1.6 km/h 84 % 0.0 mm
19:17 7.1 °C 4.6 °C 1025.6 hPa Calm   1.6 km/h 84 % 0.0 mm
19:22 7.1 °C 4.7 °C 1025.3 hPa Calm   1.6 km/h 85 % 0.0 mm
19:32 7.1 °C 4.7 °C 1025.6 hPa Calm   1.6 km/h 85 % 0.0 mm
19:37 7.1 °C 4.7 °C 1025.6 hPa Calm   1.6 km/h 85 % 0.0 mm
19:42 7.1 °C 4.7 °C 1025.6 hPa Calm   1.6 km/h 85 % 0.0 mm
19:47 7.0 °C 4.7 °C 1025.6 hPa Calm   1.6 km/h 85 % 0.0 mm
19:52 7.0 °C 4.7 °C 1025.6 hPa Calm   1.6 km/h 85 % 0.0 mm
19:57 6.9 °C 4.7 °C 1025.6 hPa Calm   1.6 km/h 86 % 0.0 mm
20:02 6.9 °C 4.6 °C 1025.6 hPa Calm   1.6 km/h 85 % 0.0 mm
20:12 7.1 °C 4.6 °C 1025.3 hPa Calm   1.6 km/h 84 % 0.0 mm
20:17 7.1 °C 4.6 °C 1025.3 hPa Calm   3.2 km/h 84 % 0.0 mm
20:22 7.1 °C 4.7 °C 1025.6 hPa Calm   3.2 km/h 85 % 0.0 mm
20:32 6.9 °C 4.6 °C 1025.6 hPa WNW 1.6 km/h 1.6 km/h 85 % 0.0 mm
20:37 6.8 °C 4.6 °C 1025.6 hPa Calm   1.6 km/h 86 % 0.0 mm
20:42 6.7 °C 4.7 °C 1025.3 hPa Calm   1.6 km/h 87 % 0.0 mm
20:47 6.7 °C 4.7 °C 1025.3 hPa Calm   1.6 km/h 87 % 0.0 mm
20:52 6.7 °C 4.5 °C 1025.3 hPa Calm   3.2 km/h 86 % 0.0 mm
20:57 6.6 °C 4.4 °C 1025.3 hPa Calm   3.2 km/h 86 % 0.0 mm
21:02 6.5 °C 4.3 °C 1025.3 hPa Calm   3.2 km/h 86 % 0.0 mm
21:07 6.5 °C 4.5 °C 1025.3 hPa Calm   3.2 km/h 87 % 0.0 mm
21:12 6.5 °C 4.3 °C 1025.3 hPa SW 1.6 km/h 4.8 km/h 86 % 0.0 mm
21:17 6.5 °C 4.2 °C 1025.3 hPa West 1.6 km/h 4.8 km/h 85 % 0.0 mm
21:22 6.4 °C 4.1 °C 1025.3 hPa West 1.6 km/h 4.8 km/h 85 % 0.0 mm
21:27 6.3 °C 4.0 °C 1025.3 hPa Calm   6.4 km/h 85 % 0.0 mm
21:32 6.3 °C 4.0 °C 1025.3 hPa WSW 3.2 km/h 6.4 km/h 85 % 0.0 mm
21:37 6.3 °C 4.0 °C 1025.3 hPa WSW 3.2 km/h 6.4 km/h 85 % 0.0 mm
21:42 6.2 °C 4.0 °C 1025.3 hPa WSW 1.6 km/h 6.4 km/h 86 % 0.0 mm
21:47 6.2 °C 4.0 °C 1025.3 hPa WSW 1.6 km/h 4.8 km/h 86 % 0.0 mm
21:52 6.1 °C 3.8 °C 1025.3 hPa West 1.6 km/h 6.4 km/h 85 % 0.0 mm
21:57 6.0 °C 3.8 °C 1025.3 hPa West 3.2 km/h 6.4 km/h 86 % 0.0 mm
22:02 5.8 °C 3.6 °C 1025.3 hPa West 4.8 km/h 9.7 km/h 86 % 0.0 mm
22:07 5.7 °C 3.7 °C 1025.3 hPa West 3.2 km/h 9.7 km/h 87 % 0.0 mm
22:12 5.4 °C 3.6 °C 1024.9 hPa West 3.2 km/h 9.7 km/h 88 % 0.0 mm
22:17 5.2 °C 3.5 °C 1024.9 hPa West 1.6 km/h 8.0 km/h 89 % 0.0 mm
22:27 5.3 °C 3.6 °C 1024.9 hPa West 3.2 km/h 4.8 km/h 89 % 0.0 mm
22:32 5.2 °C 3.5 °C 1024.9 hPa West 1.6 km/h 4.8 km/h 89 % 0.0 mm
22:37 4.9 °C 3.2 °C 1024.9 hPa West 1.6 km/h 4.8 km/h 89 % 0.0 mm
22:42 4.8 °C 3.3 °C 1024.9 hPa WNW 1.6 km/h 3.2 km/h 90 % 0.0 mm
22:47 4.8 °C 3.3 °C 1024.9 hPa WNW 1.6 km/h 3.2 km/h 90 % 0.0 mm
22:52 4.8 °C 3.5 °C 1024.9 hPa Calm   3.2 km/h 91 % 0.0 mm
22:57 4.9 °C 3.6 °C 1024.9 hPa Calm   3.2 km/h 91 % 0.0 mm
23:02 4.9 °C 3.4 °C 1024.9 hPa WNW 1.6 km/h 3.2 km/h 90 % 0.0 mm
23:07 4.8 °C 3.5 °C 1024.9 hPa WNW 1.6 km/h 3.2 km/h 91 % 0.0 mm
23:12 4.7 °C 3.2 °C 1024.9 hPa Calm   1.6 km/h 90 % 0.0 mm
23:17 4.6 °C 3.3 °C 1024.9 hPa Calm   1.6 km/h 91 % 0.0 mm
23:22 4.4 °C 3.1 °C 1024.9 hPa Calm   1.6 km/h 91 % 0.0 mm
23:32 4.3 °C 3.1 °C 1024.9 hPa Calm   1.6 km/h 92 % 0.0 mm
23:37 4.4 °C 3.4 °C 1024.9 hPa WNW 1.6 km/h 3.2 km/h 93 % 0.0 mm
23:42 4.6 °C 3.4 °C 1024.9 hPa West 1.6 km/h 3.2 km/h 92 % 0.0 mm
23:52 4.7 °C 3.5 °C 1024.9 hPa Calm   3.2 km/h 92 % 0.0 mm
Meteo18
Compliments of Weather Underground - 4 mb

Script developed by  Jim McMurry - jmcmurry@mwt.net Adapted for the template by  Wim van der Kuil - Leuven-Template.eu

You find our weather info also at:

European Weather Network

Weather Underground

Equipment we use:

Weather-station
Davis Vue

Weather-program
Meteohub

Weather-server
Raspberry PI 2 B+

Provider
1 and 1

Davis Vue

Meteohub

Raspberry PI 2 B+

1 and 1